createdAt,value
2022-10-10T00:00:09.213Z,21.15
2022-10-10T00:02:36.876Z,19.95
2022-10-10T00:05:06.831Z,20.10
2022-10-10T00:07:34.542Z,20.63
2022-10-10T00:10:02.475Z,20.58
2022-10-10T00:12:30.118Z,20.65
2022-10-10T00:14:57.809Z,19.17
2022-10-10T00:17:25.496Z,18.70
2022-10-10T00:19:53.322Z,20.05
2022-10-10T00:22:22.367Z,19.30
2022-10-10T00:24:50.175Z,21.27
2022-10-10T00:27:17.832Z,19.73
2022-10-10T00:29:45.516Z,19.17
2022-10-10T00:32:13.146Z,18.83
2022-10-10T00:34:40.869Z,18.80
2022-10-10T00:37:08.491Z,19.33
2022-10-10T00:39:37.537Z,19.25
2022-10-10T00:42:05.584Z,19.58
2022-10-10T00:44:33.291Z,18.95
2022-10-10T00:47:00.933Z,20.38
2022-10-10T00:49:30.232Z,19.70
2022-10-10T00:51:59.569Z,18.85
2022-10-10T00:54:29.157Z,18.30
2022-10-10T00:57:00.539Z,17.85
2022-10-10T00:59:29.206Z,19.70
2022-10-10T01:01:56.882Z,18.65
2022-10-10T01:04:36.230Z,18.77
2022-10-10T01:07:06.184Z,18.48
2022-10-10T01:09:34.729Z,17.00
2022-10-10T01:12:15.484Z,18.00
2022-10-10T01:14:48.015Z,18.60
2022-10-10T01:17:21.329Z,19.30
2022-10-10T01:20:22.490Z,18.25
2022-10-10T01:23:02.741Z,19.10
2022-10-10T01:25:33.312Z,19.17
2022-10-10T01:28:04.662Z,18.42
2022-10-10T01:30:35.821Z,19.38
2022-10-10T01:33:07.952Z,19.17
2022-10-10T01:35:43.580Z,19.13
2022-10-10T01:38:18.534Z,18.08
2022-10-10T01:40:50.340Z,17.98
2022-10-10T01:43:18.234Z,18.77
2022-10-10T01:45:48.914Z,18.67
2022-10-10T01:48:17.028Z,20.13
2022-10-10T01:50:57.203Z,19.08
2022-10-10T01:53:28.530Z,18.67
2022-10-10T01:56:01.302Z,18.70
2022-10-10T01:58:47.798Z,18.08
2022-10-10T02:01:19.544Z,18.23
2022-10-10T02:03:51.559Z,19.00
2022-10-10T02:06:23.430Z,18.20
2022-10-10T02:08:55.385Z,19.65
2022-10-10T02:11:24.104Z,19.95
2022-10-10T02:13:56.832Z,18.35
2022-10-10T02:16:29.099Z,18.90
2022-10-10T02:21:24.915Z,19.20
2022-10-10T02:23:54.696Z,19.00
2022-10-10T02:26:23.085Z,17.50
2022-10-10T02:28:54.336Z,16.63
2022-10-10T02:31:29.117Z,18.42
2022-10-10T02:33:59.144Z,17.60
2022-10-10T02:36:28.080Z,20.60
2022-10-10T02:38:57.037Z,20.13
2022-10-10T02:41:25.983Z,19.42
2022-10-10T02:43:53.948Z,20.15
2022-10-10T02:46:21.963Z,19.60
2022-10-10T02:48:51.053Z,18.23
2022-10-10T02:51:18.770Z,18.63
2022-10-10T02:53:46.556Z,18.42
2022-10-10T02:56:14.228Z,19.60
2022-10-10T02:58:41.868Z,18.50
2022-10-10T03:01:10.499Z,17.70
2022-10-10T03:03:38.214Z,18.33
2022-10-10T03:06:07.931Z,16.85
2022-10-10T03:08:37.904Z,19.05
2022-10-10T03:11:05.934Z,20.95
2022-10-10T03:13:33.921Z,21.70
2022-10-10T03:16:02.175Z,18.73
2022-10-10T03:18:29.896Z,17.30
2022-10-10T03:20:57.694Z,17.90
2022-10-10T03:23:27.044Z,17.10
2022-10-10T03:25:54.920Z,16.63
2022-10-10T03:28:23.130Z,18.00
2022-10-10T03:30:50.946Z,16.75
2022-10-10T03:33:18.648Z,16.77
2022-10-10T03:35:46.410Z,16.83
2022-10-10T03:38:14.950Z,18.45
2022-10-10T03:40:45.486Z,18.00
2022-10-10T03:43:14.686Z,17.27
2022-10-10T03:45:43.876Z,19.77
2022-10-10T03:48:11.911Z,17.20
2022-10-10T03:50:39.838Z,18.85
2022-10-10T03:53:07.766Z,20.55
2022-10-10T03:55:35.541Z,17.92
2022-10-10T03:58:04.521Z,17.73
2022-10-10T04:00:32.262Z,17.40
2022-10-10T04:03:00.798Z,16.58
2022-10-10T04:05:28.498Z,18.88
2022-10-10T04:07:56.225Z,16.08
2022-10-10T04:10:23.894Z,15.73
2022-10-10T04:12:52.075Z,16.40
2022-10-10T04:15:21.270Z,14.10
2022-10-10T04:17:49.415Z,18.35
2022-10-10T04:20:18.043Z,15.70
2022-10-10T04:22:45.789Z,14.45
2022-10-10T04:25:13.570Z,13.27
2022-10-10T04:27:41.255Z,14.07
2022-10-10T04:30:09.719Z,16.25
2022-10-10T04:32:41.865Z,19.70
2022-10-10T04:35:10.145Z,13.50
2022-10-10T04:37:37.948Z,19.63
2022-10-10T04:40:06.266Z,13.45
2022-10-10T04:42:33.948Z,13.75
2022-10-10T04:45:01.841Z,12.05
2022-10-10T04:47:29.535Z,12.30
2022-10-10T04:49:58.566Z,12.35
2022-10-10T04:52:26.364Z,11.57
2022-10-10T04:54:54.129Z,11.43
2022-10-10T04:57:21.916Z,10.52
2022-10-10T04:59:49.679Z,11.35
2022-10-10T05:02:17.389Z,11.10
2022-10-10T05:04:45.039Z,11.40
2022-10-10T05:07:14.113Z,11.25
2022-10-10T05:09:41.800Z,11.98
2022-10-10T05:12:09.528Z,11.98
2022-10-10T05:14:37.635Z,11.52
2022-10-10T05:17:05.535Z,11.73
2022-10-10T05:19:33.297Z,11.85
2022-10-10T05:22:01.446Z,11.63
2022-10-10T05:24:30.497Z,11.80
2022-10-10T05:26:58.198Z,11.98
2022-10-10T05:29:25.929Z,10.65
2022-10-10T05:31:53.647Z,11.27
2022-10-10T05:34:21.392Z,11.77
2022-10-10T05:36:49.126Z,11.23
2022-10-10T05:39:16.872Z,12.32
2022-10-10T05:41:45.924Z,10.98
2022-10-10T05:44:13.599Z,11.40
2022-10-10T05:46:41.268Z,11.45
2022-10-10T05:49:08.925Z,11.10
2022-10-10T05:51:36.677Z,11.32
2022-10-10T05:54:05.231Z,11.63
2022-10-10T05:56:33.109Z,11.88
2022-10-10T05:59:02.168Z,11.18
2022-10-10T06:01:29.848Z,11.40
2022-10-10T06:03:57.499Z,11.63
2022-10-10T06:06:26.312Z,10.88
2022-10-10T06:08:54.457Z,10.82
2022-10-10T06:11:23.579Z,11.15
2022-10-10T06:13:54.257Z,10.85
2022-10-10T06:16:24.118Z,11.00
2022-10-10T06:18:52.010Z,12.55
2022-10-10T06:21:20.182Z,12.73
2022-10-10T06:23:47.929Z,12.73
2022-10-10T06:26:16.274Z,11.80
2022-10-10T06:28:44.045Z,11.05
2022-10-10T06:31:13.481Z,11.15
2022-10-10T06:33:45.485Z,11.30
2022-10-10T06:36:14.557Z,11.15
2022-10-10T06:38:43.704Z,11.07
2022-10-10T06:41:11.790Z,10.77
2022-10-10T06:43:41.196Z,11.05
2022-10-10T06:46:09.638Z,11.15
2022-10-10T06:48:37.370Z,11.50
2022-10-10T06:51:08.274Z,10.43
2022-10-10T06:53:36.185Z,10.82
2022-10-10T06:56:04.161Z,10.88
2022-10-10T06:58:32.521Z,9.85
2022-10-10T07:01:01.587Z,10.60
2022-10-10T07:03:30.288Z,10.38
2022-10-10T07:05:59.127Z,10.55
2022-10-10T07:08:29.023Z,10.45
2022-10-10T07:10:56.982Z,10.02
2022-10-10T07:13:24.744Z,10.27
2022-10-10T07:15:53.391Z,9.82
2022-10-10T07:18:21.538Z,10.27
2022-10-10T07:20:49.591Z,10.48
2022-10-10T07:23:17.364Z,9.90
2022-10-10T07:25:46.475Z,10.38
2022-10-10T07:28:14.263Z,10.38
2022-10-10T07:30:43.652Z,10.90
2022-10-10T07:33:11.494Z,10.15
2022-10-10T07:35:39.182Z,10.27
2022-10-10T07:38:06.849Z,9.93
2022-10-10T07:40:34.591Z,9.98
2022-10-10T07:43:03.622Z,9.88
2022-10-10T07:45:31.301Z,10.05
2022-10-10T07:47:58.909Z,9.82
2022-10-10T07:50:26.578Z,9.75
2022-10-10T07:52:54.272Z,9.80
2022-10-10T07:55:21.897Z,10.30
2022-10-10T07:57:53.447Z,10.18
2022-10-10T08:00:22.748Z,10.27
2022-10-10T08:02:52.116Z,10.25
2022-10-10T08:05:19.748Z,11.35
2022-10-10T08:07:47.428Z,10.20
2022-10-10T08:10:15.172Z,10.23
2022-10-10T08:12:42.862Z,10.55
2022-10-10T08:17:40.962Z,9.98
2022-10-10T08:20:09.036Z,10.07
2022-10-10T08:22:36.654Z,9.93
2022-10-10T08:25:04.450Z,9.80
2022-10-10T08:27:32.139Z,10.73
2022-10-10T08:29:59.760Z,10.70
2022-10-10T08:32:27.378Z,10.20
2022-10-10T08:34:56.440Z,10.45
2022-10-10T08:37:30.284Z,10.35
2022-10-10T08:40:00.361Z,10.60
2022-10-10T08:42:31.615Z,10.25
2022-10-10T08:45:04.111Z,10.52
2022-10-10T08:47:38.012Z,10.27
2022-10-10T08:50:15.930Z,10.43
2022-10-10T08:52:47.987Z,10.20
2022-10-10T08:55:18.720Z,10.50
2022-10-10T08:57:50.950Z,10.43
2022-10-10T09:02:53.955Z,10.32
2022-10-10T09:05:32.020Z,10.18
2022-10-10T09:08:09.240Z,11.10
2022-10-10T09:10:41.566Z,10.00
2022-10-10T09:13:18.671Z,10.40
2022-10-10T09:15:51.877Z,10.30
2022-10-10T09:18:29.899Z,10.38
2022-10-10T09:21:04.871Z,10.23
2022-10-10T09:23:36.940Z,9.95
2022-10-10T09:26:11.092Z,10.48
2022-10-10T09:28:41.536Z,10.75
2022-10-10T09:31:13.817Z,10.75
2022-10-10T09:36:16.069Z,11.02
2022-10-10T09:38:48.430Z,10.60
2022-10-10T09:41:18.724Z,11.00
2022-10-10T09:43:46.348Z,10.95
2022-10-10T09:46:13.980Z,11.10
2022-10-10T09:48:43.054Z,10.48
2022-10-10T09:51:15.863Z,10.55
2022-10-10T09:53:44.702Z,11.20
2022-10-10T09:56:17.344Z,10.98
2022-10-10T09:58:46.573Z,11.57
2022-10-10T10:01:16.979Z,10.55
2022-10-10T10:03:45.745Z,10.88
2022-10-10T10:06:16.059Z,11.00
2022-10-10T10:08:47.939Z,10.95
2022-10-10T10:11:27.177Z,11.00
2022-10-10T10:13:56.527Z,11.52
2022-10-10T10:16:32.325Z,11.02
2022-10-10T10:19:00.021Z,11.43
2022-10-10T10:21:29.154Z,11.38
2022-10-10T10:23:59.326Z,10.70
2022-10-10T10:26:29.790Z,11.00
2022-10-10T10:28:58.876Z,11.65
2022-10-10T10:31:44.584Z,11.15
2022-10-10T10:34:27.605Z,11.07
2022-10-10T10:37:03.015Z,10.73
2022-10-10T10:39:40.782Z,11.02
2022-10-10T10:42:16.305Z,11.10
2022-10-10T10:44:48.243Z,12.15
2022-10-10T10:47:27.339Z,11.80
2022-10-10T10:50:04.773Z,11.57
2022-10-10T10:52:48.589Z,11.40
2022-10-10T10:55:23.690Z,12.07
2022-10-10T10:58:37.122Z,10.88
2022-10-10T11:01:23.640Z,11.20
2022-10-10T11:05:15.757Z,11.32
2022-10-10T11:07:17.970Z,11.85
2022-10-10T11:09:54.897Z,11.68
2022-10-10T11:12:44.919Z,11.32
2022-10-10T11:15:16.953Z,11.68
2022-10-10T11:17:48.103Z,11.63
2022-10-10T11:20:21.959Z,11.70
2022-10-10T11:22:52.541Z,11.93
2022-10-10T11:25:24.341Z,11.02
2022-10-10T11:27:55.073Z,12.80
2022-10-10T11:30:24.298Z,12.02
2022-10-10T11:32:55.671Z,12.50
2022-10-10T11:35:28.653Z,11.77
2022-10-10T11:38:00.454Z,10.98
2022-10-10T11:40:46.372Z,11.93
2022-10-10T11:43:26.235Z,12.52
2022-10-10T11:46:02.800Z,11.55
2022-10-10T11:48:37.721Z,11.80
2022-10-10T11:51:17.817Z,11.18
2022-10-10T11:53:47.146Z,11.70
2022-10-10T11:56:20.537Z,11.90
2022-10-10T11:58:51.246Z,11.50
2022-10-10T12:01:23.234Z,12.10
2022-10-10T12:03:51.641Z,11.95
2022-10-10T12:06:23.540Z,11.60
2022-10-10T12:08:55.611Z,11.50
2022-10-10T12:13:55.988Z,11.05
2022-10-10T12:16:30.200Z,11.50
2022-10-10T12:19:02.692Z,12.18
2022-10-10T12:24:04.561Z,11.43
2022-10-10T12:27:26.110Z,11.48
2022-10-10T12:30:17.401Z,11.63
2022-10-10T12:32:46.148Z,11.60
2022-10-10T12:35:30.938Z,11.90
2022-10-10T12:38:19.769Z,11.48
2022-10-10T12:41:13.142Z,11.52
2022-10-10T12:43:44.190Z,11.50
2022-10-10T12:46:30.973Z,11.63
2022-10-10T12:49:01.851Z,11.40
2022-10-10T12:51:31.130Z,11.73
2022-10-10T12:54:00.616Z,11.50
2022-10-10T12:56:39.886Z,11.10
2022-10-10T12:59:14.953Z,11.30
2022-10-10T13:01:48.540Z,11.35
2022-10-10T13:04:17.298Z,11.20
2022-10-10T13:06:45.518Z,11.30
2022-10-10T13:09:31.151Z,11.43
2022-10-10T13:12:03.052Z,11.05
2022-10-10T13:14:39.513Z,11.48
2022-10-10T13:17:22.738Z,11.27
2022-10-10T13:19:50.962Z,11.27
2022-10-10T13:22:18.767Z,11.18
2022-10-10T13:24:48.555Z,12.38
2022-10-10T13:27:17.686Z,11.63
2022-10-10T13:29:45.668Z,11.40
2022-10-10T13:32:16.396Z,11.50
2022-10-10T13:34:49.839Z,11.13
2022-10-10T13:37:18.578Z,11.00
2022-10-10T13:39:46.828Z,11.40
2022-10-10T13:42:27.938Z,11.18
2022-10-10T13:44:59.198Z,11.60
2022-10-10T13:47:47.994Z,10.45
2022-10-10T13:50:26.847Z,11.27
2022-10-10T13:53:31.502Z,11.00
2022-10-10T13:56:01.368Z,10.95
2022-10-10T13:58:29.741Z,11.25
2022-10-10T14:00:58.411Z,10.73
2022-10-10T14:03:26.469Z,11.05
2022-10-10T14:05:55.598Z,11.25
2022-10-10T14:08:27.540Z,11.20
2022-10-10T14:11:00.980Z,11.75
2022-10-10T14:13:30.185Z,10.93
2022-10-10T14:16:11.473Z,12.48
2022-10-10T14:18:39.257Z,11.52
2022-10-10T14:21:09.479Z,11.70
2022-10-10T14:23:37.684Z,11.40
2022-10-10T14:26:07.858Z,11.77
2022-10-10T14:28:38.688Z,12.00
2022-10-10T14:31:06.767Z,11.55
2022-10-10T14:33:34.984Z,11.18
2022-10-10T14:36:02.747Z,11.52
2022-10-10T14:38:31.855Z,11.40
2022-10-10T14:41:00.890Z,11.90
2022-10-10T14:43:28.857Z,11.77
2022-10-10T14:45:56.478Z,11.13
2022-10-10T14:48:24.212Z,11.13
2022-10-10T14:50:52.320Z,11.00
2022-10-10T14:53:20.222Z,11.75
2022-10-10T14:55:53.819Z,11.02
2022-10-10T14:58:23.862Z,12.02
2022-10-10T15:00:52.922Z,11.60
2022-10-10T15:03:20.616Z,12.02
2022-10-10T15:05:48.779Z,11.48
2022-10-10T15:08:18.216Z,10.98
2022-10-10T15:10:46.328Z,11.45
2022-10-10T15:13:16.077Z,11.15
2022-10-10T15:15:43.676Z,11.07
2022-10-10T15:18:33.322Z,11.75
2022-10-10T15:20:59.182Z,11.70
2022-10-10T15:23:27.202Z,11.70
2022-10-10T15:25:54.954Z,11.90
2022-10-10T15:28:24.046Z,11.77
2022-10-10T15:30:52.706Z,11.80
2022-10-10T15:33:20.401Z,11.45
2022-10-10T15:36:08.477Z,11.57
2022-10-10T15:38:36.635Z,12.02
2022-10-10T15:41:07.086Z,12.18
2022-10-10T15:43:44.372Z,12.55
2022-10-10T15:46:12.122Z,11.20
2022-10-10T15:48:39.759Z,12.27
2022-10-10T15:51:08.634Z,13.05
2022-10-10T15:53:37.144Z,12.07
2022-10-10T15:56:10.138Z,12.48
2022-10-10T15:58:40.400Z,11.73
2022-10-10T16:01:13.059Z,11.52
2022-10-10T16:03:40.784Z,12.52
2022-10-10T16:06:09.363Z,12.40
2022-10-10T16:08:37.714Z,12.95
2022-10-10T16:11:07.112Z,12.23
2022-10-10T16:13:36.071Z,11.32
2022-10-10T16:16:06.942Z,12.15
2022-10-10T16:18:40.027Z,12.38
2022-10-10T16:21:08.924Z,11.57
2022-10-10T16:23:37.025Z,11.77
2022-10-10T16:26:05.812Z,13.35
2022-10-10T16:28:33.841Z,13.48
2022-10-10T16:31:03.246Z,12.02
2022-10-10T16:33:35.216Z,12.40
2022-10-10T16:36:04.009Z,12.38
2022-10-10T16:38:31.670Z,12.35
2022-10-10T16:41:02.928Z,11.60
2022-10-10T16:43:30.834Z,12.05
2022-10-10T16:46:01.925Z,11.88
2022-10-10T16:48:29.654Z,11.93
2022-10-10T16:51:02.254Z,11.57
2022-10-10T16:53:30.453Z,11.65
2022-10-10T16:55:59.261Z,12.65
2022-10-10T16:58:26.967Z,15.60
2022-10-10T17:00:54.867Z,13.63
2022-10-10T17:03:22.736Z,16.63
2022-10-10T17:05:50.328Z,18.15
2022-10-10T17:08:19.305Z,16.67
2022-10-10T17:10:46.910Z,15.00
2022-10-10T17:13:14.528Z,12.50
2022-10-10T17:15:43.027Z,13.27
2022-10-10T17:18:10.676Z,13.07
2022-10-10T17:20:42.073Z,12.93
2022-10-10T17:23:09.757Z,11.95
2022-10-10T17:25:42.860Z,13.05
2022-10-10T17:28:10.699Z,12.60
2022-10-10T17:30:43.098Z,12.38
2022-10-10T17:33:11.730Z,12.98
2022-10-10T17:35:41.762Z,14.70
2022-10-10T17:38:21.585Z,13.52
2022-10-10T17:41:01.456Z,14.90
2022-10-10T17:43:29.537Z,13.70
2022-10-10T17:46:15.474Z,13.32
2022-10-10T17:48:49.013Z,12.73
2022-10-10T17:51:22.234Z,13.05
2022-10-10T17:53:50.656Z,13.10
2022-10-10T17:56:21.448Z,13.05
2022-10-10T17:58:50.207Z,13.57
2022-10-10T18:01:19.184Z,13.27
2022-10-10T18:03:47.257Z,13.43
2022-10-10T18:06:17.073Z,13.38
2022-10-10T18:08:44.758Z,14.48
2022-10-10T18:11:13.760Z,15.50
2022-10-10T18:13:43.379Z,16.23
2022-10-10T18:16:12.758Z,15.00
2022-10-10T18:18:41.138Z,13.57
2022-10-10T18:21:10.667Z,13.52
2022-10-10T18:23:38.581Z,13.40
2022-10-10T18:26:08.305Z,13.88
2022-10-10T18:28:39.005Z,14.45
2022-10-10T18:31:13.262Z,15.02
2022-10-10T18:33:41.983Z,18.20
2022-10-10T18:36:11.141Z,19.45
2022-10-10T18:38:38.925Z,18.05
2022-10-10T18:41:07.572Z,18.17
2022-10-10T18:43:35.781Z,17.13
2022-10-10T18:46:04.452Z,14.98
2022-10-10T18:48:33.809Z,15.43
2022-10-10T18:51:02.748Z,16.33
2022-10-10T18:53:30.983Z,21.85
2022-10-10T18:56:00.433Z,24.33
2022-10-10T18:58:28.150Z,24.25
2022-10-10T19:00:59.619Z,19.95
2022-10-10T19:03:27.323Z,20.75
2022-10-10T19:05:56.358Z,19.52
2022-10-10T19:08:24.033Z,19.73
2022-10-10T19:10:52.247Z,15.60
2022-10-10T19:13:20.583Z,15.00
2022-10-10T19:15:50.369Z,14.93
2022-10-10T19:18:18.631Z,14.38
2022-10-10T19:20:46.450Z,13.75
2022-10-10T19:23:15.756Z,14.05
2022-10-10T19:25:44.613Z,14.80
2022-10-10T19:28:12.335Z,15.00
2022-10-10T19:30:40.349Z,13.27
2022-10-10T19:33:08.196Z,13.52
2022-10-10T19:35:40.001Z,13.88
2022-10-10T19:38:08.887Z,13.38
2022-10-10T19:40:44.841Z,13.25
2022-10-10T19:43:12.645Z,14.05
2022-10-10T19:45:41.342Z,12.27
2022-10-10T19:48:09.067Z,12.82
2022-10-10T19:50:39.743Z,14.32
2022-10-10T19:53:08.082Z,14.70
2022-10-10T19:55:35.744Z,14.43
2022-10-10T19:58:04.813Z,14.23
2022-10-10T20:00:32.693Z,14.93
2022-10-10T20:03:00.382Z,14.05
2022-10-10T20:05:28.138Z,12.52
2022-10-10T20:07:55.792Z,13.30
2022-10-10T20:10:23.468Z,14.25
2022-10-10T20:12:51.142Z,13.80
2022-10-10T20:15:20.149Z,13.13
2022-10-10T20:17:47.877Z,14.25
2022-10-10T20:20:15.552Z,13.63
2022-10-10T20:22:44.570Z,13.65
2022-10-10T20:25:12.481Z,13.40
2022-10-10T20:27:40.243Z,14.57
2022-10-10T20:30:08.924Z,15.38
2022-10-10T20:32:37.956Z,16.15
2022-10-10T20:35:06.309Z,15.10
2022-10-10T20:37:35.438Z,14.75
2022-10-10T20:40:03.101Z,14.35
2022-10-10T20:42:30.741Z,14.80
2022-10-10T20:44:58.433Z,12.98
2022-10-10T20:47:26.079Z,12.15
2022-10-10T20:49:55.090Z,12.70
2022-10-10T20:52:22.741Z,13.10
2022-10-10T20:54:50.352Z,13.32
2022-10-10T20:57:18.013Z,13.80
2022-10-10T20:59:45.667Z,13.63
2022-10-10T21:02:19.283Z,12.52
2022-10-10T21:04:47.415Z,11.88
2022-10-10T21:07:16.477Z,11.77
2022-10-10T21:09:44.103Z,12.25
2022-10-10T21:12:11.761Z,12.77
2022-10-10T21:14:39.369Z,12.43
2022-10-10T21:17:07.017Z,12.35
2022-10-10T21:19:34.692Z,11.32
2022-10-10T21:22:02.327Z,11.52
2022-10-10T21:24:31.345Z,11.27
2022-10-10T21:26:59.029Z,11.88
2022-10-10T21:29:26.659Z,11.93
2022-10-10T21:31:54.273Z,10.75
2022-10-10T21:34:21.927Z,11.32
2022-10-10T21:36:49.581Z,11.95
2022-10-10T21:39:17.360Z,12.20
2022-10-10T21:41:46.381Z,11.70
2022-10-10T21:44:15.803Z,11.75
2022-10-10T21:46:43.463Z,11.52
2022-10-10T21:49:12.612Z,11.50
2022-10-10T21:51:42.226Z,11.77
2022-10-10T21:54:10.322Z,11.05
2022-10-10T21:56:38.503Z,11.68
2022-10-10T21:59:07.751Z,11.80
2022-10-10T22:01:37.428Z,11.82
2022-10-10T22:04:05.598Z,11.68
2022-10-10T22:06:33.374Z,12.73
2022-10-10T22:09:02.804Z,11.32
2022-10-10T22:11:32.050Z,10.98
2022-10-10T22:14:02.117Z,11.63
2022-10-10T22:16:31.247Z,15.27
2022-10-10T22:18:59.356Z,11.60
2022-10-10T22:21:30.858Z,12.90
2022-10-10T22:23:58.897Z,11.45
2022-10-10T22:26:26.633Z,12.52
2022-10-10T22:28:54.483Z,13.18
2022-10-10T22:31:22.202Z,15.57
2022-10-10T22:33:51.155Z,13.38
2022-10-10T22:36:18.949Z,12.55
2022-10-10T22:38:46.629Z,12.20
2022-10-10T22:41:14.630Z,11.88
2022-10-10T22:43:42.300Z,12.45
2022-10-10T22:46:10.031Z,11.52
2022-10-10T22:48:37.756Z,11.10
2022-10-10T22:51:07.852Z,10.50
2022-10-10T22:53:35.936Z,11.32
2022-10-10T22:56:03.993Z,10.98
2022-10-10T22:58:33.036Z,10.25
2022-10-10T23:01:04.491Z,11.05
2022-10-10T23:03:32.180Z,10.30
2022-10-10T23:05:59.791Z,10.43
2022-10-10T23:08:28.963Z,11.15
2022-10-10T23:10:56.596Z,10.80
2022-10-10T23:13:24.348Z,10.70
2022-10-10T23:15:52.113Z,11.40
2022-10-10T23:18:19.833Z,10.85
2022-10-10T23:20:47.601Z,10.63
2022-10-10T23:23:15.631Z,10.43
2022-10-10T23:25:46.211Z,10.15
2022-10-10T23:28:15.293Z,11.32
2022-10-10T23:30:44.418Z,12.13
2022-10-10T23:33:12.661Z,11.70
2022-10-10T23:35:40.300Z,11.10
2022-10-10T23:38:08.375Z,11.18
2022-10-10T23:40:36.076Z,11.27
2022-10-10T23:43:05.431Z,11.65
2022-10-10T23:45:33.025Z,11.48
2022-10-10T23:48:00.680Z,11.32
2022-10-10T23:50:28.295Z,11.65
2022-10-10T23:52:55.921Z,11.15
2022-10-10T23:55:23.627Z,11.48
2022-10-10T23:57:51.325Z,10.45
